sensor_id;sensor_type;location;lat;lon;timestamp;temperature;humidity
72814;DHT22;60945;48.516;-2.768;2022-08-05T00:00:00;16.00;63.30
72814;DHT22;60945;48.516;-2.768;2022-08-05T00:02:26;16.00;63.30
72814;DHT22;60945;48.516;-2.768;2022-08-05T00:04:51;16.00;63.90
72814;DHT22;60945;48.516;-2.768;2022-08-05T00:07:17;16.00;63.50
72814;DHT22;60945;48.516;-2.768;2022-08-05T00:09:42;16.00;64.10
72814;DHT22;60945;48.516;-2.768;2022-08-05T00:12:08;15.90;64.30
72814;DHT22;60945;48.516;-2.768;2022-08-05T00:14:33;15.90;64.30
72814;DHT22;60945;48.516;-2.768;2022-08-05T00:16:59;15.90;64.60
72814;DHT22;60945;48.516;-2.768;2022-08-05T00:19:24;15.80;65.10
72814;DHT22;60945;48.516;-2.768;2022-08-05T00:21:50;15.70;65.10
72814;DHT22;60945;48.516;-2.768;2022-08-05T00:24:15;15.80;65.10
72814;DHT22;60945;48.516;-2.768;2022-08-05T00:26:41;15.70;66.10
72814;DHT22;60945;48.516;-2.768;2022-08-05T00:29:06;15.70;66.00
72814;DHT22;60945;48.516;-2.768;2022-08-05T00:31:32;15.70;66.00
72814;DHT22;60945;48.516;-2.768;2022-08-05T00:33:57;15.60;66.50
72814;DHT22;60945;48.516;-2.768;2022-08-05T00:36:23;15.70;65.90
72814;DHT22;60945;48.516;-2.768;2022-08-05T00:38:49;15.70;66.00
72814;DHT22;60945;48.516;-2.768;2022-08-05T00:41:25;15.70;66.40
72814;DHT22;60945;48.516;-2.768;2022-08-05T00:43:50;15.60;67.00
72814;DHT22;60945;48.516;-2.768;2022-08-05T00:46:16;15.60;67.00
72814;DHT22;60945;48.516;-2.768;2022-08-05T00:48:41;15.60;67.00
72814;DHT22;60945;48.516;-2.768;2022-08-05T00:51:07;15.60;66.90
72814;DHT22;60945;48.516;-2.768;2022-08-05T00:53:32;15.60;67.80
72814;DHT22;60945;48.516;-2.768;2022-08-05T00:55:58;15.60;67.50
72814;DHT22;60945;48.516;-2.768;2022-08-05T00:58:23;15.50;68.80
72814;DHT22;60945;48.516;-2.768;2022-08-05T01:00:49;15.50;68.80
72814;DHT22;60945;48.516;-2.768;2022-08-05T01:03:14;15.50;68.60
72814;DHT22;60945;48.516;-2.768;2022-08-05T01:05:40;15.50;68.20
72814;DHT22;60945;48.516;-2.768;2022-08-05T01:08:05;15.50;68.80
72814;DHT22;60945;48.516;-2.768;2022-08-05T01:10:36;15.50;69.20
72814;DHT22;60945;48.516;-2.768;2022-08-05T01:13:04;15.50;68.00
72814;DHT22;60945;48.516;-2.768;2022-08-05T01:15:32;15.60;68.80
72814;DHT22;60945;48.516;-2.768;2022-08-05T01:18:05;15.60;68.30
72814;DHT22;60945;48.516;-2.768;2022-08-05T01:25:48;15.90;68.50
72814;DHT22;60945;48.516;-2.768;2022-08-05T01:33:30;16.40;66.00
72814;DHT22;60945;48.516;-2.768;2022-08-05T01:35:57;16.50;65.40
72814;DHT22;60945;48.516;-2.768;2022-08-05T01:38:24;16.70;64.30
72814;DHT22;60945;48.516;-2.768;2022-08-05T01:40:50;16.80;63.50
72814;DHT22;60945;48.516;-2.768;2022-08-05T01:43:16;16.90;62.90
72814;DHT22;60945;48.516;-2.768;2022-08-05T01:45:42;16.90;61.90
72814;DHT22;60945;48.516;-2.768;2022-08-05T01:48:07;17.00;60.40
72814;DHT22;60945;48.516;-2.768;2022-08-05T01:50:37;17.00;60.30
72814;DHT22;60945;48.516;-2.768;2022-08-05T01:53:06;17.10;59.90
72814;DHT22;60945;48.516;-2.768;2022-08-05T01:55:32;17.20;60.20
72814;DHT22;60945;48.516;-2.768;2022-08-05T01:57:59;17.20;60.00
72814;DHT22;60945;48.516;-2.768;2022-08-05T02:00:26;17.20;60.40
72814;DHT22;60945;48.516;-2.768;2022-08-05T02:03:00;17.20;60.40
72814;DHT22;60945;48.516;-2.768;2022-08-05T02:05:29;17.20;60.00
72814;DHT22;60945;48.516;-2.768;2022-08-05T02:07:58;17.20;59.00
72814;DHT22;60945;48.516;-2.768;2022-08-05T02:10:25;17.10;60.10
72814;DHT22;60945;48.516;-2.768;2022-08-05T02:12:52;17.20;59.40
72814;DHT22;60945;48.516;-2.768;2022-08-05T02:15:21;17.10;59.90
72814;DHT22;60945;48.516;-2.768;2022-08-05T02:20:21;17.00;59.80
72814;DHT22;60945;48.516;-2.768;2022-08-05T02:22:48;16.90;59.90
72814;DHT22;60945;48.516;-2.768;2022-08-05T02:25:18;16.90;60.40
72814;DHT22;60945;48.516;-2.768;2022-08-05T02:27:46;16.90;60.60
72814;DHT22;60945;48.516;-2.768;2022-08-05T02:30:14;16.90;60.80
72814;DHT22;60945;48.516;-2.768;2022-08-05T02:32:40;16.90;60.40
72814;DHT22;60945;48.516;-2.768;2022-08-05T02:35:08;16.90;60.20
72814;DHT22;60945;48.516;-2.768;2022-08-05T02:37:35;16.90;60.30
72814;DHT22;60945;48.516;-2.768;2022-08-05T02:40:01;16.90;60.20
72814;DHT22;60945;48.516;-2.768;2022-08-05T02:42:27;16.90;60.80
72814;DHT22;60945;48.516;-2.768;2022-08-05T02:44:53;16.90;60.60
72814;DHT22;60945;48.516;-2.768;2022-08-05T02:47:19;16.80;60.40
72814;DHT22;60945;48.516;-2.768;2022-08-05T02:49:45;16.80;60.80
72814;DHT22;60945;48.516;-2.768;2022-08-05T02:52:13;16.80;60.80
72814;DHT22;60945;48.516;-2.768;2022-08-05T02:54:39;16.80;61.00
72814;DHT22;60945;48.516;-2.768;2022-08-05T02:57:10;16.80;61.30
72814;DHT22;60945;48.516;-2.768;2022-08-05T02:59:37;16.80;61.20
72814;DHT22;60945;48.516;-2.768;2022-08-05T03:02:04;16.80;61.80
72814;DHT22;60945;48.516;-2.768;2022-08-05T03:04:30;16.70;61.70
72814;DHT22;60945;48.516;-2.768;2022-08-05T03:06:56;16.70;61.20
72814;DHT22;60945;48.516;-2.768;2022-08-05T03:09:22;16.70;61.80
72814;DHT22;60945;48.516;-2.768;2022-08-05T03:11:47;16.70;62.10
72814;DHT22;60945;48.516;-2.768;2022-08-05T03:14:13;16.70;62.80
72814;DHT22;60945;48.516;-2.768;2022-08-05T03:16:38;16.70;62.40
72814;DHT22;60945;48.516;-2.768;2022-08-05T03:19:04;16.70;62.10
72814;DHT22;60945;48.516;-2.768;2022-08-05T03:21:29;16.70;62.60
72814;DHT22;60945;48.516;-2.768;2022-08-05T03:23:55;16.70;62.90
72814;DHT22;60945;48.516;-2.768;2022-08-05T03:26:22;16.70;62.70
72814;DHT22;60945;48.516;-2.768;2022-08-05T03:28:47;16.70;62.50
72814;DHT22;60945;48.516;-2.768;2022-08-05T03:31:13;16.70;62.40
72814;DHT22;60945;48.516;-2.768;2022-08-05T03:33:38;16.70;61.90
72814;DHT22;60945;48.516;-2.768;2022-08-05T03:36:05;16.70;62.20
72814;DHT22;60945;48.516;-2.768;2022-08-05T03:38:30;16.60;62.40
72814;DHT22;60945;48.516;-2.768;2022-08-05T03:40:56;16.60;62.60
72814;DHT22;60945;48.516;-2.768;2022-08-05T03:43:21;16.50;62.30
72814;DHT22;60945;48.516;-2.768;2022-08-05T03:45:50;16.50;62.80
72814;DHT22;60945;48.516;-2.768;2022-08-05T03:48:16;16.50;63.00
72814;DHT22;60945;48.516;-2.768;2022-08-05T03:53:18;16.40;63.70
72814;DHT22;60945;48.516;-2.768;2022-08-05T03:55:48;16.40;63.60
72814;DHT22;60945;48.516;-2.768;2022-08-05T03:58:15;16.30;64.30
72814;DHT22;60945;48.516;-2.768;2022-08-05T04:00:41;16.30;64.10
72814;DHT22;60945;48.516;-2.768;2022-08-05T04:03:08;16.30;64.40
72814;DHT22;60945;48.516;-2.768;2022-08-05T04:05:36;16.30;64.20
72814;DHT22;60945;48.516;-2.768;2022-08-05T04:08:04;16.20;64.50
72814;DHT22;60945;48.516;-2.768;2022-08-05T04:10:30;16.20;64.40
72814;DHT22;60945;48.516;-2.768;2022-08-05T04:12:56;16.20;64.40
72814;DHT22;60945;48.516;-2.768;2022-08-05T04:15:22;16.20;64.80
72814;DHT22;60945;48.516;-2.768;2022-08-05T04:17:47;16.10;64.90
72814;DHT22;60945;48.516;-2.768;2022-08-05T04:20:17;16.10;65.60
72814;DHT22;60945;48.516;-2.768;2022-08-05T04:22:43;16.00;65.20
72814;DHT22;60945;48.516;-2.768;2022-08-05T04:25:09;16.10;65.10
72814;DHT22;60945;48.516;-2.768;2022-08-05T04:27:34;16.00;65.20
72814;DHT22;60945;48.516;-2.768;2022-08-05T04:30:00;16.00;65.80
72814;DHT22;60945;48.516;-2.768;2022-08-05T04:32:25;15.90;66.20
72814;DHT22;60945;48.516;-2.768;2022-08-05T04:34:51;15.90;66.50
72814;DHT22;60945;48.516;-2.768;2022-08-05T04:37:16;16.00;66.60
72814;DHT22;60945;48.516;-2.768;2022-08-05T04:39:41;15.90;66.40
72814;DHT22;60945;48.516;-2.768;2022-08-05T04:42:07;15.90;66.50
72814;DHT22;60945;48.516;-2.768;2022-08-05T04:44:33;15.90;66.10
72814;DHT22;60945;48.516;-2.768;2022-08-05T04:46:58;15.90;66.30
72814;DHT22;60945;48.516;-2.768;2022-08-05T04:49:24;15.90;66.70
72814;DHT22;60945;48.516;-2.768;2022-08-05T04:51:49;15.90;67.00
72814;DHT22;60945;48.516;-2.768;2022-08-05T04:54:15;15.90;66.70
72814;DHT22;60945;48.516;-2.768;2022-08-05T04:56:40;15.80;66.50
72814;DHT22;60945;48.516;-2.768;2022-08-05T04:59:06;15.80;67.00
72814;DHT22;60945;48.516;-2.768;2022-08-05T05:01:31;15.80;66.40
72814;DHT22;60945;48.516;-2.768;2022-08-05T05:03:57;15.80;67.30
72814;DHT22;60945;48.516;-2.768;2022-08-05T05:06:22;15.80;67.40
72814;DHT22;60945;48.516;-2.768;2022-08-05T05:08:48;15.70;67.20
72814;DHT22;60945;48.516;-2.768;2022-08-05T05:11:14;15.80;67.50
72814;DHT22;60945;48.516;-2.768;2022-08-05T05:13:39;15.90;67.10
72814;DHT22;60945;48.516;-2.768;2022-08-05T05:16:05;15.90;66.70
72814;DHT22;60945;48.516;-2.768;2022-08-05T05:18:30;15.90;66.70
72814;DHT22;60945;48.516;-2.768;2022-08-05T05:20:56;16.00;66.40
72814;DHT22;60945;48.516;-2.768;2022-08-05T05:23:21;15.90;66.50
72814;DHT22;60945;48.516;-2.768;2022-08-05T05:25:47;16.00;66.30
72814;DHT22;60945;48.516;-2.768;2022-08-05T05:28:12;16.00;66.00
72814;DHT22;60945;48.516;-2.768;2022-08-05T05:30:38;16.10;65.70
72814;DHT22;60945;48.516;-2.768;2022-08-05T05:33:04;16.10;65.80
72814;DHT22;60945;48.516;-2.768;2022-08-05T05:35:31;16.10;65.30
72814;DHT22;60945;48.516;-2.768;2022-08-05T05:37:57;16.10;65.80
72814;DHT22;60945;48.516;-2.768;2022-08-05T05:40:25;16.20;65.80
72814;DHT22;60945;48.516;-2.768;2022-08-05T05:42:51;16.20;65.20
72814;DHT22;60945;48.516;-2.768;2022-08-05T05:45:16;16.20;65.90
72814;DHT22;60945;48.516;-2.768;2022-08-05T05:47:42;16.30;65.50
72814;DHT22;60945;48.516;-2.768;2022-08-05T05:50:09;16.50;65.30
72814;DHT22;60945;48.516;-2.768;2022-08-05T05:52:35;16.50;65.10
72814;DHT22;60945;48.516;-2.768;2022-08-05T05:55:00;16.60;64.20
72814;DHT22;60945;48.516;-2.768;2022-08-05T05:57:26;16.70;64.30
72814;DHT22;60945;48.516;-2.768;2022-08-05T05:59:52;16.80;63.40
72814;DHT22;60945;48.516;-2.768;2022-08-05T06:02:17;16.80;63.20
72814;DHT22;60945;48.516;-2.768;2022-08-05T06:04:43;16.90;63.10
72814;DHT22;60945;48.516;-2.768;2022-08-05T06:07:08;16.90;62.50
72814;DHT22;60945;48.516;-2.768;2022-08-05T06:09:34;17.00;62.60
72814;DHT22;60945;48.516;-2.768;2022-08-05T06:11:59;17.00;62.40
72814;DHT22;60945;48.516;-2.768;2022-08-05T06:14:25;17.00;61.70
72814;DHT22;60945;48.516;-2.768;2022-08-05T06:16:50;17.10;62.30
72814;DHT22;60945;48.516;-2.768;2022-08-05T06:19:16;17.10;62.40
72814;DHT22;60945;48.516;-2.768;2022-08-05T06:21:41;17.10;62.00
72814;DHT22;60945;48.516;-2.768;2022-08-05T06:24:07;17.10;62.10
72814;DHT22;60945;48.516;-2.768;2022-08-05T06:26:36;17.10;62.70
72814;DHT22;60945;48.516;-2.768;2022-08-05T06:29:02;17.30;62.40
72814;DHT22;60945;48.516;-2.768;2022-08-05T06:31:28;17.30;62.10
72814;DHT22;60945;48.516;-2.768;2022-08-05T06:33:53;17.40;61.90
72814;DHT22;60945;48.516;-2.768;2022-08-05T06:36:19;17.50;61.60
72814;DHT22;60945;48.516;-2.768;2022-08-05T06:38:45;17.60;61.00
72814;DHT22;60945;48.516;-2.768;2022-08-05T06:41:10;17.60;60.90
72814;DHT22;60945;48.516;-2.768;2022-08-05T06:43:36;17.70;60.80
72814;DHT22;60945;48.516;-2.768;2022-08-05T06:46:01;17.60;60.80
72814;DHT22;60945;48.516;-2.768;2022-08-05T06:48:27;17.60;60.40
72814;DHT22;60945;48.516;-2.768;2022-08-05T06:50:53;17.60;60.40
72814;DHT22;60945;48.516;-2.768;2022-08-05T06:53:18;17.60;59.90
72814;DHT22;60945;48.516;-2.768;2022-08-05T06:55:44;17.60;60.50
72814;DHT22;60945;48.516;-2.768;2022-08-05T06:58:09;17.70;60.40
72814;DHT22;60945;48.516;-2.768;2022-08-05T07:00:35;17.80;60.00
72814;DHT22;60945;48.516;-2.768;2022-08-05T07:03:00;17.80;59.10
72814;DHT22;60945;48.516;-2.768;2022-08-05T07:05:26;17.90;59.70
72814;DHT22;60945;48.516;-2.768;2022-08-05T07:07:52;17.90;58.80
72814;DHT22;60945;48.516;-2.768;2022-08-05T07:10:17;18.00;57.70
72814;DHT22;60945;48.516;-2.768;2022-08-05T07:12:46;18.10;55.80
72814;DHT22;60945;48.516;-2.768;2022-08-05T07:15:30;18.00;56.20
72814;DHT22;60945;48.516;-2.768;2022-08-05T07:18:14;18.10;56.20
72814;DHT22;60945;48.516;-2.768;2022-08-05T07:20:40;18.10;56.20
72814;DHT22;60945;48.516;-2.768;2022-08-05T07:23:05;18.20;56.10
72814;DHT22;60945;48.516;-2.768;2022-08-05T07:25:31;18.10;56.00
72814;DHT22;60945;48.516;-2.768;2022-08-05T07:27:56;18.20;55.90
72814;DHT22;60945;48.516;-2.768;2022-08-05T07:30:22;18.10;55.10
72814;DHT22;60945;48.516;-2.768;2022-08-05T07:32:48;18.20;54.80
72814;DHT22;60945;48.516;-2.768;2022-08-05T07:35:13;18.30;55.50
72814;DHT22;60945;48.516;-2.768;2022-08-05T07:37:39;18.30;55.80
72814;DHT22;60945;48.516;-2.768;2022-08-05T07:40:05;18.30;54.80
72814;DHT22;60945;48.516;-2.768;2022-08-05T07:42:31;18.40;54.40
72814;DHT22;60945;48.516;-2.768;2022-08-05T07:44:56;18.50;54.40
72814;DHT22;60945;48.516;-2.768;2022-08-05T07:47:22;18.60;54.50
72814;DHT22;60945;48.516;-2.768;2022-08-05T07:49:47;18.60;54.30
72814;DHT22;60945;48.516;-2.768;2022-08-05T07:52:19;18.70;54.20
72814;DHT22;60945;48.516;-2.768;2022-08-05T07:54:45;19.00;53.80
72814;DHT22;60945;48.516;-2.768;2022-08-05T07:57:10;19.20;53.30
72814;DHT22;60945;48.516;-2.768;2022-08-05T07:59:36;19.40;52.70
72814;DHT22;60945;48.516;-2.768;2022-08-05T08:02:02;19.80;52.20
72814;DHT22;60945;48.516;-2.768;2022-08-05T08:04:27;20.00;51.50
72814;DHT22;60945;48.516;-2.768;2022-08-05T08:06:53;20.00;51.80
72814;DHT22;60945;48.516;-2.768;2022-08-05T08:09:19;20.10;51.70
72814;DHT22;60945;48.516;-2.768;2022-08-05T08:11:45;20.00;52.00
72814;DHT22;60945;48.516;-2.768;2022-08-05T08:14:10;20.00;52.10
72814;DHT22;60945;48.516;-2.768;2022-08-05T08:16:36;20.20;52.00
72814;DHT22;60945;48.516;-2.768;2022-08-05T08:19:02;20.10;52.10
72814;DHT22;60945;48.516;-2.768;2022-08-05T08:21:27;20.30;51.50
72814;DHT22;60945;48.516;-2.768;2022-08-05T08:23:53;20.10;51.10
72814;DHT22;60945;48.516;-2.768;2022-08-05T08:26:18;20.20;51.40
72814;DHT22;60945;48.516;-2.768;2022-08-05T08:28:44;20.50;51.20
72814;DHT22;60945;48.516;-2.768;2022-08-05T08:31:09;20.80;50.90
72814;DHT22;60945;48.516;-2.768;2022-08-05T08:33:35;20.60;51.20
72814;DHT22;60945;48.516;-2.768;2022-08-05T08:36:01;20.70;51.30
72814;DHT22;60945;48.516;-2.768;2022-08-05T08:38:26;20.90;50.40
72814;DHT22;60945;48.516;-2.768;2022-08-05T08:40:52;20.80;50.30
72814;DHT22;60945;48.516;-2.768;2022-08-05T08:43:18;20.70;50.90
72814;DHT22;60945;48.516;-2.768;2022-08-05T08:45:43;21.20;49.40
72814;DHT22;60945;48.516;-2.768;2022-08-05T08:48:11;21.00;49.80
72814;DHT22;60945;48.516;-2.768;2022-08-05T08:50:40;21.30;49.70
72814;DHT22;60945;48.516;-2.768;2022-08-05T08:53:07;21.50;49.00
72814;DHT22;60945;48.516;-2.768;2022-08-05T08:55:34;21.40;49.20
72814;DHT22;60945;48.516;-2.768;2022-08-05T08:58:00;21.70;49.00
72814;DHT22;60945;48.516;-2.768;2022-08-05T09:00:26;21.80;48.30
72814;DHT22;60945;48.516;-2.768;2022-08-05T09:02:52;22.10;46.70
72814;DHT22;60945;48.516;-2.768;2022-08-05T09:05:18;22.00;47.00
72814;DHT22;60945;48.516;-2.768;2022-08-05T09:07:44;22.00;47.00
72814;DHT22;60945;48.516;-2.768;2022-08-05T09:10:10;22.20;45.80
72814;DHT22;60945;48.516;-2.768;2022-08-05T09:12:36;22.50;45.40
72814;DHT22;60945;48.516;-2.768;2022-08-05T09:15:03;22.70;44.10
72814;DHT22;60945;48.516;-2.768;2022-08-05T09:17:29;22.60;44.20
72814;DHT22;60945;48.516;-2.768;2022-08-05T09:19:55;22.20;45.60
72814;DHT22;60945;48.516;-2.768;2022-08-05T09:22:20;22.90;44.90
72814;DHT22;60945;48.516;-2.768;2022-08-05T09:27:30;23.30;43.80
72814;DHT22;60945;48.516;-2.768;2022-08-05T09:30:00;23.30;43.70
72814;DHT22;60945;48.516;-2.768;2022-08-05T09:32:32;23.10;42.60
72814;DHT22;60945;48.516;-2.768;2022-08-05T09:34:58;22.90;43.40
72814;DHT22;60945;48.516;-2.768;2022-08-05T09:37:26;23.60;43.50
72814;DHT22;60945;48.516;-2.768;2022-08-05T09:39:52;23.90;42.60
72814;DHT22;60945;48.516;-2.768;2022-08-05T09:42:19;24.30;41.80
72814;DHT22;60945;48.516;-2.768;2022-08-05T09:44:46;24.50;41.60
72814;DHT22;60945;48.516;-2.768;2022-08-05T09:47:15;24.60;41.40
72814;DHT22;60945;48.516;-2.768;2022-08-05T09:49:45;24.60;41.40
72814;DHT22;60945;48.516;-2.768;2022-08-05T10:00:13;25.50;38.80
72814;DHT22;60945;48.516;-2.768;2022-08-05T10:02:43;25.70;39.50
72814;DHT22;60945;48.516;-2.768;2022-08-05T10:05:11;25.70;38.80
72814;DHT22;60945;48.516;-2.768;2022-08-05T10:07:53;25.90;38.50
72814;DHT22;60945;48.516;-2.768;2022-08-05T10:10:22;25.50;38.00
72814;DHT22;60945;48.516;-2.768;2022-08-05T10:12:50;25.80;38.50
72814;DHT22;60945;48.516;-2.768;2022-08-05T10:15:23;25.80;38.20
72814;DHT22;60945;48.516;-2.768;2022-08-05T10:20:35;26.10;37.90
72814;DHT22;60945;48.516;-2.768;2022-08-05T10:23:00;26.80;36.70
72814;DHT22;60945;48.516;-2.768;2022-08-05T10:25:26;26.80;35.70
72814;DHT22;60945;48.516;-2.768;2022-08-05T10:27:52;27.00;36.20
72814;DHT22;60945;48.516;-2.768;2022-08-05T10:30:18;27.20;35.50
72814;DHT22;60945;48.516;-2.768;2022-08-05T10:32:44;27.70;34.40
72814;DHT22;60945;48.516;-2.768;2022-08-05T10:35:11;26.60;36.80
72814;DHT22;60945;48.516;-2.768;2022-08-05T10:37:37;26.80;37.00
72814;DHT22;60945;48.516;-2.768;2022-08-05T10:40:03;26.80;36.60
72814;DHT22;60945;48.516;-2.768;2022-08-05T10:42:30;26.80;36.20
72814;DHT22;60945;48.516;-2.768;2022-08-05T10:44:58;27.30;36.10
72814;DHT22;60945;48.516;-2.768;2022-08-05T10:47:32;28.20;34.90
72814;DHT22;60945;48.516;-2.768;2022-08-05T10:50:05;28.60;33.50
72814;DHT22;60945;48.516;-2.768;2022-08-05T10:52:38;28.60;34.60
72814;DHT22;60945;48.516;-2.768;2022-08-05T10:55:09;28.60;34.20
72814;DHT22;60945;48.516;-2.768;2022-08-05T10:57:35;29.60;34.30
72814;DHT22;60945;48.516;-2.768;2022-08-05T11:02:35;30.50;33.00
72814;DHT22;60945;48.516;-2.768;2022-08-05T11:05:05;31.10;31.30
72814;DHT22;60945;48.516;-2.768;2022-08-05T11:07:31;30.90;30.40
72814;DHT22;60945;48.516;-2.768;2022-08-05T11:09:56;31.70;29.90
72814;DHT22;60945;48.516;-2.768;2022-08-05T11:15:10;33.20;29.00
72814;DHT22;60945;48.516;-2.768;2022-08-05T11:17:39;33.80;28.30
72814;DHT22;60945;48.516;-2.768;2022-08-05T11:20:06;33.80;27.10
72814;DHT22;60945;48.516;-2.768;2022-08-05T11:33:28;34.40;25.80
72814;DHT22;60945;48.516;-2.768;2022-08-05T11:35:55;33.20;27.70
72814;DHT22;60945;48.516;-2.768;2022-08-05T11:38:56;33.60;26.60
72814;DHT22;60945;48.516;-2.768;2022-08-05T11:41:17;34.60;26.20
72814;DHT22;60945;48.516;-2.768;2022-08-05T11:46:26;35.20;24.80
72814;DHT22;60945;48.516;-2.768;2022-08-05T11:48:51;36.40;25.10
72814;DHT22;60945;48.516;-2.768;2022-08-05T11:51:17;37.00;24.40
72814;DHT22;60945;48.516;-2.768;2022-08-05T11:53:43;36.00;25.00
72814;DHT22;60945;48.516;-2.768;2022-08-05T11:56:10;36.60;25.30
72814;DHT22;60945;48.516;-2.768;2022-08-05T11:58:36;36.30;25.20
72814;DHT22;60945;48.516;-2.768;2022-08-05T12:01:06;36.50;24.60
72814;DHT22;60945;48.516;-2.768;2022-08-05T12:06:08;38.70;23.60
72814;DHT22;60945;48.516;-2.768;2022-08-05T12:08:38;38.50;23.80
72814;DHT22;60945;48.516;-2.768;2022-08-05T12:11:04;39.30;22.80
72814;DHT22;60945;48.516;-2.768;2022-08-05T12:13:32;39.60;22.50
72814;DHT22;60945;48.516;-2.768;2022-08-05T12:15:57;39.20;22.60
72814;DHT22;60945;48.516;-2.768;2022-08-05T12:18:27;39.40;23.30
72814;DHT22;60945;48.516;-2.768;2022-08-05T12:20:54;39.40;22.40
72814;DHT22;60945;48.516;-2.768;2022-08-05T12:23:19;39.90;22.40
72814;DHT22;60945;48.516;-2.768;2022-08-05T12:25:51;39.90;22.40
72814;DHT22;60945;48.516;-2.768;2022-08-05T12:28:34;41.20;21.30
72814;DHT22;60945;48.516;-2.768;2022-08-05T12:30:59;41.60;21.00
72814;DHT22;60945;48.516;-2.768;2022-08-05T12:33:25;40.70;21.50
72814;DHT22;60945;48.516;-2.768;2022-08-05T12:35:52;40.50;21.40
72814;DHT22;60945;48.516;-2.768;2022-08-05T12:38:18;40.70;21.20
72814;DHT22;60945;48.516;-2.768;2022-08-05T12:40:43;42.10;20.20
72814;DHT22;60945;48.516;-2.768;2022-08-05T12:43:10;42.90;20.70
72814;DHT22;60945;48.516;-2.768;2022-08-05T12:45:36;43.20;20.70
72814;DHT22;60945;48.516;-2.768;2022-08-05T12:48:14;43.30;19.40
72814;DHT22;60945;48.516;-2.768;2022-08-05T12:50:40;41.80;20.10
72814;DHT22;60945;48.516;-2.768;2022-08-05T12:53:05;43.30;19.40
72814;DHT22;60945;48.516;-2.768;2022-08-05T12:55:31;44.10;18.80
72814;DHT22;60945;48.516;-2.768;2022-08-05T12:57:57;43.10;20.00
72814;DHT22;60945;48.516;-2.768;2022-08-05T13:00:24;43.80;19.40
72814;DHT22;60945;48.516;-2.768;2022-08-05T13:02:53;42.00;20.00
72814;DHT22;60945;48.516;-2.768;2022-08-05T13:05:20;40.00;21.30
72814;DHT22;60945;48.516;-2.768;2022-08-05T13:07:46;38.80;22.50
72814;DHT22;60945;48.516;-2.768;2022-08-05T13:10:13;40.50;21.30
72814;DHT22;60945;48.516;-2.768;2022-08-05T13:12:39;41.80;20.70
72814;DHT22;60945;48.516;-2.768;2022-08-05T13:15:05;42.10;19.50
72814;DHT22;60945;48.516;-2.768;2022-08-05T13:17:34;41.30;20.80
72814;DHT22;60945;48.516;-2.768;2022-08-05T13:20:12;42.20;19.40
72814;DHT22;60945;48.516;-2.768;2022-08-05T13:22:49;43.20;18.90
72814;DHT22;60945;48.516;-2.768;2022-08-05T13:25:15;44.60;18.70
72814;DHT22;60945;48.516;-2.768;2022-08-05T13:27:51;44.40;18.70
72814;DHT22;60945;48.516;-2.768;2022-08-05T13:30:18;44.70;18.40
72814;DHT22;60945;48.516;-2.768;2022-08-05T13:32:48;44.60;18.20
72814;DHT22;60945;48.516;-2.768;2022-08-05T13:35:15;43.50;18.80
72814;DHT22;60945;48.516;-2.768;2022-08-05T13:37:40;43.40;19.50
72814;DHT22;60945;48.516;-2.768;2022-08-05T13:40:06;43.90;19.30
72814;DHT22;60945;48.516;-2.768;2022-08-05T13:42:32;45.00;18.60
72814;DHT22;60945;48.516;-2.768;2022-08-05T13:44:58;45.60;18.10
72814;DHT22;60945;48.516;-2.768;2022-08-05T13:47:23;45.20;18.30
72814;DHT22;60945;48.516;-2.768;2022-08-05T13:49:49;46.40;17.50
72814;DHT22;60945;48.516;-2.768;2022-08-05T13:52:25;46.10;17.50
72814;DHT22;60945;48.516;-2.768;2022-08-05T13:54:54;46.20;17.40
72814;DHT22;60945;48.516;-2.768;2022-08-05T13:57:20;46.10;18.00
72814;DHT22;60945;48.516;-2.768;2022-08-05T13:59:46;46.80;17.10
72814;DHT22;60945;48.516;-2.768;2022-08-05T14:02:12;45.40;17.60
72814;DHT22;60945;48.516;-2.768;2022-08-05T14:04:39;45.50;17.60
72814;DHT22;60945;48.516;-2.768;2022-08-05T14:07:24;45.50;17.80
72814;DHT22;60945;48.516;-2.768;2022-08-05T14:09:50;45.20;17.90
72814;DHT22;60945;48.516;-2.768;2022-08-05T14:12:15;44.00;18.50
72814;DHT22;60945;48.516;-2.768;2022-08-05T14:14:41;44.40;18.60
72814;DHT22;60945;48.516;-2.768;2022-08-05T14:17:06;45.80;17.90
72814;DHT22;60945;48.516;-2.768;2022-08-05T14:19:32;45.50;17.90
72814;DHT22;60945;48.516;-2.768;2022-08-05T14:21:57;46.50;17.40
72814;DHT22;60945;48.516;-2.768;2022-08-05T14:24:23;46.00;17.70
72814;DHT22;60945;48.516;-2.768;2022-08-05T14:26:48;46.00;17.20
72814;DHT22;60945;48.516;-2.768;2022-08-05T14:29:14;45.50;17.80
72814;DHT22;60945;48.516;-2.768;2022-08-05T14:31:40;45.70;17.70
72814;DHT22;60945;48.516;-2.768;2022-08-05T14:34:05;44.50;18.30
72814;DHT22;60945;48.516;-2.768;2022-08-05T14:36:31;44.10;18.60
72814;DHT22;60945;48.516;-2.768;2022-08-05T14:38:56;44.80;18.20
72814;DHT22;60945;48.516;-2.768;2022-08-05T14:41:22;44.60;18.20
72814;DHT22;60945;48.516;-2.768;2022-08-05T14:43:47;45.20;17.90
72814;DHT22;60945;48.516;-2.768;2022-08-05T14:46:15;45.40;18.20
72814;DHT22;60945;48.516;-2.768;2022-08-05T14:48:40;45.90;17.40
72814;DHT22;60945;48.516;-2.768;2022-08-05T14:51:06;46.00;17.60
72814;DHT22;60945;48.516;-2.768;2022-08-05T14:53:32;46.10;17.20
72814;DHT22;60945;48.516;-2.768;2022-08-05T14:55:57;45.50;17.40
72814;DHT22;60945;48.516;-2.768;2022-08-05T14:58:23;45.70;17.20
72814;DHT22;60945;48.516;-2.768;2022-08-05T15:00:48;45.80;17.10
72814;DHT22;60945;48.516;-2.768;2022-08-05T15:03:13;45.40;17.50
72814;DHT22;60945;48.516;-2.768;2022-08-05T15:05:39;44.30;17.70
72814;DHT22;60945;48.516;-2.768;2022-08-05T15:08:05;45.20;17.50
72814;DHT22;60945;48.516;-2.768;2022-08-05T15:10:30;43.80;18.20
72814;DHT22;60945;48.516;-2.768;2022-08-05T15:12:56;44.40;18.30
72814;DHT22;60945;48.516;-2.768;2022-08-05T15:15:21;42.60;18.00
72814;DHT22;60945;48.516;-2.768;2022-08-05T15:17:47;42.00;18.20
72814;DHT22;60945;48.516;-2.768;2022-08-05T15:20:12;41.30;18.60
72814;DHT22;60945;48.516;-2.768;2022-08-05T15:22:38;40.10;18.80
72814;DHT22;60945;48.516;-2.768;2022-08-05T15:25:04;38.60;20.20
72814;DHT22;60945;48.516;-2.768;2022-08-05T15:27:30;38.90;19.70
72814;DHT22;60945;48.516;-2.768;2022-08-05T15:29:55;38.30;20.40
72814;DHT22;60945;48.516;-2.768;2022-08-05T15:32:22;37.30;20.60
72814;DHT22;60945;48.516;-2.768;2022-08-05T15:34:47;38.00;20.10
72814;DHT22;60945;48.516;-2.768;2022-08-05T15:37:13;37.10;21.50
72814;DHT22;60945;48.516;-2.768;2022-08-05T15:39:38;37.30;20.80
72814;DHT22;60945;48.516;-2.768;2022-08-05T15:42:04;35.90;21.50
72814;DHT22;60945;48.516;-2.768;2022-08-05T15:44:29;36.20;21.50
72814;DHT22;60945;48.516;-2.768;2022-08-05T15:46:55;35.50;21.30
72814;DHT22;60945;48.516;-2.768;2022-08-05T15:49:20;35.00;21.70
72814;DHT22;60945;48.516;-2.768;2022-08-05T15:51:46;34.90;22.20
72814;DHT22;60945;48.516;-2.768;2022-08-05T15:54:11;35.20;21.10
72814;DHT22;60945;48.516;-2.768;2022-08-05T15:56:37;34.20;22.20
72814;DHT22;60945;48.516;-2.768;2022-08-05T15:59:02;35.00;21.80
72814;DHT22;60945;48.516;-2.768;2022-08-05T16:01:28;34.90;21.60